createdAt,value
2022-08-14T00:03:00.369Z,2061.1804
2022-08-14T00:18:02.797Z,2190.40298
2022-08-14T00:33:15.205Z,2214.398
2022-08-14T00:48:34.822Z,2168.58288
2022-08-14T01:03:39.083Z,2131.0246
2022-08-14T01:18:41.315Z,1942.34779
2022-08-14T01:33:59.516Z,1947.69492
2022-08-14T01:49:02.896Z,2127.82005
2022-08-14T02:04:05.113Z,2129.42112
2022-08-14T02:19:23.253Z,2153.72958
2022-08-14T02:34:27.658Z,2031.587
2022-08-14T02:49:33.930Z,1776.52278
2022-08-14T03:04:36.864Z,1572.22271
2022-08-14T03:19:42.432Z,1379.14281
2022-08-14T03:34:48.588Z,1264.5224
2022-08-14T03:49:58.322Z,1181.13573
2022-08-14T04:05:08.139Z,1160.78803
2022-08-14T04:20:15.331Z,1207.33839
2022-08-14T04:35:56.405Z,1228.29912
2022-08-14T04:50:59.372Z,1205.2816
2022-08-14T05:06:02.960Z,1243.41
2022-08-14T05:21:59.260Z,1214.59278
2022-08-14T05:37:03.811Z,1132.0005
2022-08-14T05:52:09.933Z,1004.97209
2022-08-14T06:07:12.290Z,1132.90683
2022-08-14T06:22:14.523Z,1078.5066
2022-08-14T06:37:19.709Z,1005.68636
2022-08-14T06:52:24.055Z,975.86257
2022-08-14T07:07:28.795Z,1017.98611
2022-08-14T07:22:33.103Z,962.58553
2022-08-14T07:37:58.297Z,958.02352
2022-08-14T07:53:01.442Z,872.38028
2022-08-14T08:08:08.374Z,823.15349
2022-08-14T08:23:40.520Z,875.61931
2022-08-14T08:39:16.743Z,873.45729
2022-08-14T08:54:26.742Z,810.42432
2022-08-14T09:09:34.031Z,800.33986
2022-08-14T09:24:57.104Z,816.03279
2022-08-14T09:39:59.398Z,798.98412
2022-08-14T09:55:02.809Z,794.49797
2022-08-14T10:10:23.652Z,816.03279
2022-08-14T10:25:26.518Z,808.11015
2022-08-14T10:40:38.087Z,790.94516
2022-08-14T10:55:46.089Z,768.18725
2022-08-14T11:10:48.314Z,775.34296
2022-08-14T11:25:52.998Z,782.63324
2022-08-14T11:40:55.979Z,781.76845
2022-08-14T11:55:58.302Z,782.20061
2022-08-14T12:11:00.770Z,788.74074
2022-08-14T12:26:39.566Z,778.32833
2022-08-14T12:41:43.504Z,775.76804
2022-08-14T12:56:45.920Z,771.11766
2022-08-14T13:11:49.085Z,768.60452
2022-08-14T13:27:01.840Z,721.21806
2022-08-14T13:42:05.204Z,729.40526
2022-08-14T13:57:10.885Z,701.88055
2022-08-14T14:12:36.601Z,715.37824
2022-08-14T14:27:43.629Z,790.06191
2022-08-14T14:42:46.000Z,887.14783
2022-08-14T14:57:52.044Z,959.97336
2022-08-14T15:13:00.309Z,973.17794
2022-08-14T15:28:06.872Z,1052.04511
2022-08-14T15:43:13.266Z,1156.04626
2022-08-14T15:58:15.576Z,1183.11087
2022-08-14T16:13:39.740Z,1301.74844
2022-08-14T16:28:44.652Z,1357.96596
2022-08-14T16:43:47.453Z,1267.92165
2022-08-14T16:58:50.066Z,1197.12402
2022-08-14T17:14:00.725Z,1137.46031
2022-08-14T17:29:03.678Z,1068.73162
2022-08-14T17:44:06.356Z,1046.59813
2022-08-14T17:59:11.658Z,1065.51255
2022-08-14T18:14:31.339Z,1091.82149
2022-08-14T18:29:35.441Z,1199.15305
2022-08-14T18:44:44.797Z,1224.04895
2022-08-14T18:59:47.408Z,1406.56115
2022-08-14T19:14:51.096Z,1623.6379
2022-08-14T19:29:53.871Z,1606.12989
2022-08-14T19:44:56.229Z,1794.5471
2022-08-14T20:00:00.058Z,2028.67434
2022-08-14T20:15:02.873Z,2202.33514
2022-08-14T20:30:29.883Z,1991.55574
2022-08-14T20:45:36.866Z,2053.70152
2022-08-14T21:00:52.397Z,2170.2459
2022-08-14T21:15:58.118Z,2031.587
2022-08-14T21:31:01.282Z,2150.45643
2022-08-14T21:46:03.606Z,2105.65526
2022-08-14T22:01:05.970Z,2190.40298
2022-08-14T22:17:00.558Z,2364.24445
2022-08-14T22:32:14.327Z,2465.15731
2022-08-14T22:47:24.673Z,2635.00983
2022-08-14T23:02:30.246Z,2561.08649
2022-08-14T23:17:39.540Z,2672.33291
2022-08-14T23:32:42.768Z,2739.59394
2022-08-14T23:47:51.654Z,2771.79288
